sensor_id;sensor_type;location;lat;lon;timestamp;P1;durP1;ratioP1;P2;durP2;ratioP2
42978;SDS011;28616;44.746;19.678;2023-07-20T00:08:03;21.38;;;6.97;;
42978;SDS011;28616;44.746;19.678;2023-07-20T00:11:26;14.88;;;5.80;;
42978;SDS011;28616;44.746;19.678;2023-07-20T00:17:36;14.07;;;4.95;;
42978;SDS011;28616;44.746;19.678;2023-07-20T00:20:02;16.35;;;6.60;;
42978;SDS011;28616;44.746;19.678;2023-07-20T00:22:34;17.08;;;5.47;;
42978;SDS011;28616;44.746;19.678;2023-07-20T00:25:39;15.90;;;5.25;;
42978;SDS011;28616;44.746;19.678;2023-07-20T00:28:13;13.07;;;4.70;;
42978;SDS011;28616;44.746;19.678;2023-07-20T00:34:24;15.75;;;3.72;;
42978;SDS011;28616;44.746;19.678;2023-07-20T00:40:44;11.50;;;4.45;;
42978;SDS011;28616;44.746;19.678;2023-07-20T00:43:21;11.35;;;4.22;;
42978;SDS011;28616;44.746;19.678;2023-07-20T00:49:22;13.90;;;4.75;;
42978;SDS011;28616;44.746;19.678;2023-07-20T00:52:08;12.68;;;4.90;;
42978;SDS011;28616;44.746;19.678;2023-07-20T00:54:47;23.05;;;6.35;;
42978;SDS011;28616;44.746;19.678;2023-07-20T01:03:38;17.08;;;4.75;;
42978;SDS011;28616;44.746;19.678;2023-07-20T01:14:32;16.33;;;4.63;;
42978;SDS011;28616;44.746;19.678;2023-07-20T01:17:04;9.88;;;5.35;;
42978;SDS011;28616;44.746;19.678;2023-07-20T01:19:46;14.63;;;5.03;;
42978;SDS011;28616;44.746;19.678;2023-07-20T01:34:13;11.80;;;5.25;;
42978;SDS011;28616;44.746;19.678;2023-07-20T01:37:10;14.45;;;5.75;;
42978;SDS011;28616;44.746;19.678;2023-07-20T01:39:56;16.77;;;5.50;;
42978;SDS011;28616;44.746;19.678;2023-07-20T01:42:51;21.52;;;5.43;;
42978;SDS011;28616;44.746;19.678;2023-07-20T01:45:21;18.83;;;4.95;;
42978;SDS011;28616;44.746;19.678;2023-07-20T01:47:56;11.75;;;4.47;;
42978;SDS011;28616;44.746;19.678;2023-07-20T01:50:43;13.13;;;5.22;;
42978;SDS011;28616;44.746;19.678;2023-07-20T01:53:41;13.45;;;5.43;;
42978;SDS011;28616;44.746;19.678;2023-07-20T01:56:34;10.70;;;5.53;;
42978;SDS011;28616;44.746;19.678;2023-07-20T01:59:39;15.10;;;5.13;;
42978;SDS011;28616;44.746;19.678;2023-07-20T02:09:15;14.18;;;5.40;;
42978;SDS011;28616;44.746;19.678;2023-07-20T02:11:41;19.35;;;5.70;;
42978;SDS011;28616;44.746;19.678;2023-07-20T02:14:10;15.10;;;5.65;;
42978;SDS011;28616;44.746;19.678;2023-07-20T02:16:42;13.77;;;5.72;;
42978;SDS011;28616;44.746;19.678;2023-07-20T02:19:08;15.50;;;6.45;;
42978;SDS011;28616;44.746;19.678;2023-07-20T02:21:36;17.00;;;6.38;;
42978;SDS011;28616;44.746;19.678;2023-07-20T02:24:05;19.90;;;7.13;;
42978;SDS011;28616;44.746;19.678;2023-07-20T02:32:43;21.20;;;6.18;;
42978;SDS011;28616;44.746;19.678;2023-07-20T02:52:40;15.65;;;5.70;;
42978;SDS011;28616;44.746;19.678;2023-07-20T04:05:14;15.32;;;6.05;;
42978;SDS011;28616;44.746;19.678;2023-07-20T04:11:06;18.10;;;6.45;;
42978;SDS011;28616;44.746;19.678;2023-07-20T04:13:35;12.60;;;5.95;;
42978;SDS011;28616;44.746;19.678;2023-07-20T04:16:01;15.75;;;6.18;;
42978;SDS011;28616;44.746;19.678;2023-07-20T04:18:27;17.25;;;6.15;;
42978;SDS011;28616;44.746;19.678;2023-07-20T04:20:53;14.20;;;6.00;;
42978;SDS011;28616;44.746;19.678;2023-07-20T04:23:37;16.15;;;6.53;;
42978;SDS011;28616;44.746;19.678;2023-07-20T04:26:03;13.70;;;8.20;;
42978;SDS011;28616;44.746;19.678;2023-07-20T04:28:28;13.93;;;7.05;;
42978;SDS011;28616;44.746;19.678;2023-07-20T04:30:58;17.20;;;6.32;;
42978;SDS011;28616;44.746;19.678;2023-07-20T04:33:38;16.15;;;7.18;;
42978;SDS011;28616;44.746;19.678;2023-07-20T04:36:04;12.55;;;6.40;;
42978;SDS011;28616;44.746;19.678;2023-07-20T04:38:30;20.02;;;6.28;;
42978;SDS011;28616;44.746;19.678;2023-07-20T04:40:56;13.88;;;6.13;;
42978;SDS011;28616;44.746;19.678;2023-07-20T04:43:22;15.00;;;6.13;;
42978;SDS011;28616;44.746;19.678;2023-07-20T05:02:53;10.60;;;6.50;;
42978;SDS011;28616;44.746;19.678;2023-07-20T05:05:19;11.50;;;6.55;;
42978;SDS011;28616;44.746;19.678;2023-07-20T05:07:45;14.55;;;6.45;;
42978;SDS011;28616;44.746;19.678;2023-07-20T05:10:10;13.23;;;6.40;;
42978;SDS011;28616;44.746;19.678;2023-07-20T05:12:36;11.13;;;5.88;;
42978;SDS011;28616;44.746;19.678;2023-07-20T05:15:02;13.88;;;6.88;;
42978;SDS011;28616;44.746;19.678;2023-07-20T05:17:28;13.85;;;5.93;;
42978;SDS011;28616;44.746;19.678;2023-07-20T05:19:54;14.13;;;6.25;;
42978;SDS011;28616;44.746;19.678;2023-07-20T05:22:20;17.38;;;6.05;;
42978;SDS011;28616;44.746;19.678;2023-07-20T05:24:46;14.90;;;7.43;;
42978;SDS011;28616;44.746;19.678;2023-07-20T05:27:12;10.18;;;5.68;;
42978;SDS011;28616;44.746;19.678;2023-07-20T05:29:37;11.18;;;5.30;;
42978;SDS011;28616;44.746;19.678;2023-07-20T05:32:08;17.45;;;6.80;;
42978;SDS011;28616;44.746;19.678;2023-07-20T05:34:35;16.85;;;8.52;;
42978;SDS011;28616;44.746;19.678;2023-07-20T05:37:10;17.80;;;9.05;;
42978;SDS011;28616;44.746;19.678;2023-07-20T05:39:35;18.73;;;8.07;;
42978;SDS011;28616;44.746;19.678;2023-07-20T05:42:01;10.82;;;6.28;;
42978;SDS011;28616;44.746;19.678;2023-07-20T05:44:27;12.40;;;5.95;;
42978;SDS011;28616;44.746;19.678;2023-07-20T05:46:53;14.68;;;5.38;;
42978;SDS011;28616;44.746;19.678;2023-07-20T05:49:19;10.98;;;4.85;;
42978;SDS011;28616;44.746;19.678;2023-07-20T05:51:45;18.88;;;5.35;;
42978;SDS011;28616;44.746;19.678;2023-07-20T05:54:11;12.45;;;5.07;;
42978;SDS011;28616;44.746;19.678;2023-07-20T05:56:37;9.80;;;5.13;;
42978;SDS011;28616;44.746;19.678;2023-07-20T05:59:03;8.52;;;4.60;;
42978;SDS011;28616;44.746;19.678;2023-07-20T06:01:29;8.43;;;4.50;;
42978;SDS011;28616;44.746;19.678;2023-07-20T06:03:55;12.55;;;6.15;;
42978;SDS011;28616;44.746;19.678;2023-07-20T06:06:21;9.95;;;5.15;;
42978;SDS011;28616;44.746;19.678;2023-07-20T06:08:46;11.07;;;5.65;;
42978;SDS011;28616;44.746;19.678;2023-07-20T06:11:12;10.32;;;4.95;;
42978;SDS011;28616;44.746;19.678;2023-07-20T06:13:38;12.90;;;5.55;;
42978;SDS011;28616;44.746;19.678;2023-07-20T06:16:04;8.52;;;4.80;;
42978;SDS011;28616;44.746;19.678;2023-07-20T06:18:30;11.02;;;5.50;;
42978;SDS011;28616;44.746;19.678;2023-07-20T06:20:56;11.73;;;4.72;;
42978;SDS011;28616;44.746;19.678;2023-07-20T06:23:23;10.65;;;5.80;;
42978;SDS011;28616;44.746;19.678;2023-07-20T06:25:49;11.68;;;5.38;;
42978;SDS011;28616;44.746;19.678;2023-07-20T06:28:16;8.80;;;5.38;;
42978;SDS011;28616;44.746;19.678;2023-07-20T06:30:43;13.18;;;5.93;;
42978;SDS011;28616;44.746;19.678;2023-07-20T06:33:09;12.13;;;5.25;;
42978;SDS011;28616;44.746;19.678;2023-07-20T06:35:35;13.15;;;5.40;;
42978;SDS011;28616;44.746;19.678;2023-07-20T06:38:01;16.00;;;6.13;;
42978;SDS011;28616;44.746;19.678;2023-07-20T06:40:29;9.13;;;5.32;;
42978;SDS011;28616;44.746;19.678;2023-07-20T06:42:55;17.85;;;5.88;;
42978;SDS011;28616;44.746;19.678;2023-07-20T06:45:22;12.93;;;6.55;;
42978;SDS011;28616;44.746;19.678;2023-07-20T06:47:48;9.70;;;5.63;;
42978;SDS011;28616;44.746;19.678;2023-07-20T06:50:14;11.63;;;5.45;;
42978;SDS011;28616;44.746;19.678;2023-07-20T06:52:44;12.18;;;6.50;;
42978;SDS011;28616;44.746;19.678;2023-07-20T06:55:12;14.27;;;5.95;;
42978;SDS011;28616;44.746;19.678;2023-07-20T06:57:39;11.18;;;5.22;;
42978;SDS011;28616;44.746;19.678;2023-07-20T07:00:05;10.38;;;5.80;;
42978;SDS011;28616;44.746;19.678;2023-07-20T07:02:32;8.32;;;5.40;;
42978;SDS011;28616;44.746;19.678;2023-07-20T07:04:59;13.00;;;5.90;;
42978;SDS011;28616;44.746;19.678;2023-07-20T07:07:31;13.43;;;6.22;;
42978;SDS011;28616;44.746;19.678;2023-07-20T07:12:24;12.48;;;6.38;;
42978;SDS011;28616;44.746;19.678;2023-07-20T07:14:50;11.63;;;5.72;;
42978;SDS011;28616;44.746;19.678;2023-07-20T07:17:19;10.85;;;6.38;;
42978;SDS011;28616;44.746;19.678;2023-07-20T07:19:52;12.27;;;6.93;;
42978;SDS011;28616;44.746;19.678;2023-07-20T07:22:21;13.45;;;6.22;;
42978;SDS011;28616;44.746;19.678;2023-07-20T07:24:48;10.63;;;6.07;;
42978;SDS011;28616;44.746;19.678;2023-07-20T07:27:14;14.90;;;6.28;;
42978;SDS011;28616;44.746;19.678;2023-07-20T07:29:44;13.13;;;6.05;;
42978;SDS011;28616;44.746;19.678;2023-07-20T07:32:10;12.88;;;6.35;;
42978;SDS011;28616;44.746;19.678;2023-07-20T07:34:36;13.52;;;5.75;;
42978;SDS011;28616;44.746;19.678;2023-07-20T07:37:03;11.80;;;5.63;;
42978;SDS011;28616;44.746;19.678;2023-07-20T07:39:29;10.75;;;5.97;;
42978;SDS011;28616;44.746;19.678;2023-07-20T07:41:56;18.58;;;5.93;;
42978;SDS011;28616;44.746;19.678;2023-07-20T07:44:22;12.82;;;6.25;;
42978;SDS011;28616;44.746;19.678;2023-07-20T07:46:49;11.10;;;5.15;;
42978;SDS011;28616;44.746;19.678;2023-07-20T07:49:15;12.10;;;5.35;;
42978;SDS011;28616;44.746;19.678;2023-07-20T07:51:43;15.98;;;5.68;;
42978;SDS011;28616;44.746;19.678;2023-07-20T07:54:09;14.60;;;5.72;;
42978;SDS011;28616;44.746;19.678;2023-07-20T07:56:36;8.90;;;5.63;;
42978;SDS011;28616;44.746;19.678;2023-07-20T07:59:02;13.05;;;5.75;;
42978;SDS011;28616;44.746;19.678;2023-07-20T08:01:28;12.13;;;5.05;;
42978;SDS011;28616;44.746;19.678;2023-07-20T08:03:55;12.85;;;5.50;;
42978;SDS011;28616;44.746;19.678;2023-07-20T08:06:21;11.23;;;6.22;;
42978;SDS011;28616;44.746;19.678;2023-07-20T08:08:49;10.57;;;6.05;;
42978;SDS011;28616;44.746;19.678;2023-07-20T08:11:15;12.40;;;6.28;;
42978;SDS011;28616;44.746;19.678;2023-07-20T08:13:43;11.65;;;5.18;;
42978;SDS011;28616;44.746;19.678;2023-07-20T08:16:09;12.25;;;4.43;;
42978;SDS011;28616;44.746;19.678;2023-07-20T08:18:35;9.15;;;4.60;;
42978;SDS011;28616;44.746;19.678;2023-07-20T08:21:01;8.13;;;3.45;;
42978;SDS011;28616;44.746;19.678;2023-07-20T08:23:28;9.30;;;3.38;;
42978;SDS011;28616;44.746;19.678;2023-07-20T08:25:54;6.65;;;3.45;;
42978;SDS011;28616;44.746;19.678;2023-07-20T08:28:20;6.38;;;3.35;;
42978;SDS011;28616;44.746;19.678;2023-07-20T08:30:47;9.45;;;3.72;;
42978;SDS011;28616;44.746;19.678;2023-07-20T08:33:14;7.25;;;3.88;;
42978;SDS011;28616;44.746;19.678;2023-07-20T08:35:41;8.07;;;3.20;;
42978;SDS011;28616;44.746;19.678;2023-07-20T08:38:07;5.80;;;2.80;;
42978;SDS011;28616;44.746;19.678;2023-07-20T08:40:34;4.93;;;3.10;;
42978;SDS011;28616;44.746;19.678;2023-07-20T08:43:04;7.28;;;3.60;;
42978;SDS011;28616;44.746;19.678;2023-07-20T08:45:32;8.20;;;2.70;;
42978;SDS011;28616;44.746;19.678;2023-07-20T08:47:59;6.57;;;2.45;;
42978;SDS011;28616;44.746;19.678;2023-07-20T08:50:31;6.90;;;2.83;;
42978;SDS011;28616;44.746;19.678;2023-07-20T08:52:58;3.65;;;2.30;;
42978;SDS011;28616;44.746;19.678;2023-07-20T08:55:25;3.42;;;2.22;;
42978;SDS011;28616;44.746;19.678;2023-07-20T08:57:55;8.02;;;3.03;;
42978;SDS011;28616;44.746;19.678;2023-07-20T09:00:22;5.95;;;3.30;;
42978;SDS011;28616;44.746;19.678;2023-07-20T09:02:55;4.25;;;2.55;;
42978;SDS011;28616;44.746;19.678;2023-07-20T09:05:22;6.03;;;2.65;;
42978;SDS011;28616;44.746;19.678;2023-07-20T09:07:49;7.43;;;2.70;;
42978;SDS011;28616;44.746;19.678;2023-07-20T09:10:15;5.10;;;2.65;;
42978;SDS011;28616;44.746;19.678;2023-07-20T09:12:43;5.63;;;2.33;;
42978;SDS011;28616;44.746;19.678;2023-07-20T09:15:10;6.13;;;2.40;;
42978;SDS011;28616;44.746;19.678;2023-07-20T09:17:36;5.20;;;2.85;;
42978;SDS011;28616;44.746;19.678;2023-07-20T09:20:06;5.57;;;2.72;;
42978;SDS011;28616;44.746;19.678;2023-07-20T09:22:35;5.78;;;2.50;;
42978;SDS011;28616;44.746;19.678;2023-07-20T09:25:05;6.95;;;2.92;;
42978;SDS011;28616;44.746;19.678;2023-07-20T09:27:36;8.93;;;3.38;;
42978;SDS011;28616;44.746;19.678;2023-07-20T09:30:02;4.10;;;2.65;;
42978;SDS011;28616;44.746;19.678;2023-07-20T09:32:29;5.30;;;2.72;;
42978;SDS011;28616;44.746;19.678;2023-07-20T09:38:26;5.78;;;2.63;;
42978;SDS011;28616;44.746;19.678;2023-07-20T09:40:52;5.07;;;2.47;;
42978;SDS011;28616;44.746;19.678;2023-07-20T09:43:18;9.25;;;2.35;;
42978;SDS011;28616;44.746;19.678;2023-07-20T09:45:45;7.13;;;2.90;;
42978;SDS011;28616;44.746;19.678;2023-07-20T10:01:03;5.22;;;1.92;;
42978;SDS011;28616;44.746;19.678;2023-07-20T10:03:41;3.10;;;1.85;;
42978;SDS011;28616;44.746;19.678;2023-07-20T10:06:08;4.50;;;2.15;;
42978;SDS011;28616;44.746;19.678;2023-07-20T10:08:38;3.58;;;1.80;;
42978;SDS011;28616;44.746;19.678;2023-07-20T10:11:05;7.03;;;2.08;;
42978;SDS011;28616;44.746;19.678;2023-07-20T10:13:32;3.60;;;1.85;;
42978;SDS011;28616;44.746;19.678;2023-07-20T10:16:03;5.53;;;2.28;;
42978;SDS011;28616;44.746;19.678;2023-07-20T10:20:59;4.47;;;2.20;;
42978;SDS011;28616;44.746;19.678;2023-07-20T10:23:26;6.70;;;2.00;;
42978;SDS011;28616;44.746;19.678;2023-07-20T10:25:52;5.57;;;1.95;;
42978;SDS011;28616;44.746;19.678;2023-07-20T10:28:21;6.13;;;2.00;;
42978;SDS011;28616;44.746;19.678;2023-07-20T10:31:00;7.70;;;2.28;;
42978;SDS011;28616;44.746;19.678;2023-07-20T10:33:26;5.63;;;1.95;;
42978;SDS011;28616;44.746;19.678;2023-07-20T10:35:53;6.43;;;2.22;;
42978;SDS011;28616;44.746;19.678;2023-07-20T10:38:20;4.13;;;1.77;;
42978;SDS011;28616;44.746;19.678;2023-07-20T10:40:55;4.80;;;1.98;;
42978;SDS011;28616;44.746;19.678;2023-07-20T10:43:21;5.55;;;2.17;;
42978;SDS011;28616;44.746;19.678;2023-07-20T10:45:57;3.70;;;2.00;;
42978;SDS011;28616;44.746;19.678;2023-07-20T10:48:24;6.30;;;2.10;;
42978;SDS011;28616;44.746;19.678;2023-07-20T10:51:11;5.18;;;1.90;;
42978;SDS011;28616;44.746;19.678;2023-07-20T10:53:38;4.38;;;1.95;;
42978;SDS011;28616;44.746;19.678;2023-07-20T10:58:33;3.67;;;1.42;;
42978;SDS011;28616;44.746;19.678;2023-07-20T11:01:01;9.95;;;2.40;;
42978;SDS011;28616;44.746;19.678;2023-07-20T11:03:28;6.47;;;1.98;;
42978;SDS011;28616;44.746;19.678;2023-07-20T11:05:55;6.82;;;1.90;;
42978;SDS011;28616;44.746;19.678;2023-07-20T11:08:42;4.88;;;2.05;;
42978;SDS011;28616;44.746;19.678;2023-07-20T11:11:30;4.03;;;1.85;;
42978;SDS011;28616;44.746;19.678;2023-07-20T11:14:00;3.50;;;1.92;;
42978;SDS011;28616;44.746;19.678;2023-07-20T11:16:36;6.50;;;1.88;;
42978;SDS011;28616;44.746;19.678;2023-07-20T11:19:03;3.70;;;1.95;;
42978;SDS011;28616;44.746;19.678;2023-07-20T11:21:40;9.75;;;1.50;;
42978;SDS011;28616;44.746;19.678;2023-07-20T11:24:06;3.53;;;1.88;;
42978;SDS011;28616;44.746;19.678;2023-07-20T11:26:41;3.45;;;1.70;;
42978;SDS011;28616;44.746;19.678;2023-07-20T11:29:07;4.57;;;1.73;;
42978;SDS011;28616;44.746;19.678;2023-07-20T11:31:40;4.10;;;1.75;;
42978;SDS011;28616;44.746;19.678;2023-07-20T11:34:07;4.47;;;1.70;;
42978;SDS011;28616;44.746;19.678;2023-07-20T11:36:33;4.40;;;1.90;;
42978;SDS011;28616;44.746;19.678;2023-07-20T11:39:00;3.90;;;1.95;;
42978;SDS011;28616;44.746;19.678;2023-07-20T11:41:26;4.63;;;1.92;;
42978;SDS011;28616;44.746;19.678;2023-07-20T11:43:53;3.33;;;1.90;;
42978;SDS011;28616;44.746;19.678;2023-07-20T11:46:19;2.90;;;1.50;;
42978;SDS011;28616;44.746;19.678;2023-07-20T11:48:46;3.40;;;1.65;;
42978;SDS011;28616;44.746;19.678;2023-07-20T11:51:15;4.15;;;1.70;;
42978;SDS011;28616;44.746;19.678;2023-07-20T11:53:45;3.70;;;1.70;;
42978;SDS011;28616;44.746;19.678;2023-07-20T11:56:11;4.53;;;1.63;;
42978;SDS011;28616;44.746;19.678;2023-07-20T11:58:44;4.75;;;2.30;;
42978;SDS011;28616;44.746;19.678;2023-07-20T12:01:11;4.45;;;2.10;;
42978;SDS011;28616;44.746;19.678;2023-07-20T12:03:38;6.13;;;2.15;;
42978;SDS011;28616;44.746;19.678;2023-07-20T12:06:11;4.00;;;2.03;;
42978;SDS011;28616;44.746;19.678;2023-07-20T12:08:43;3.85;;;1.77;;
42978;SDS011;28616;44.746;19.678;2023-07-20T12:11:10;5.68;;;2.63;;
42978;SDS011;28616;44.746;19.678;2023-07-20T12:16:36;5.05;;;2.15;;
42978;SDS011;28616;44.746;19.678;2023-07-20T12:19:05;4.65;;;2.08;;
42978;SDS011;28616;44.746;19.678;2023-07-20T12:21:31;5.53;;;1.77;;
42978;SDS011;28616;44.746;19.678;2023-07-20T12:23:58;6.07;;;2.08;;
42978;SDS011;28616;44.746;19.678;2023-07-20T12:26:24;5.13;;;2.20;;
42978;SDS011;28616;44.746;19.678;2023-07-20T12:28:51;6.40;;;2.20;;
42978;SDS011;28616;44.746;19.678;2023-07-20T12:31:18;4.53;;;1.88;;
42978;SDS011;28616;44.746;19.678;2023-07-20T12:33:44;6.25;;;2.78;;
42978;SDS011;28616;44.746;19.678;2023-07-20T12:36:10;6.68;;;2.10;;
42978;SDS011;28616;44.746;19.678;2023-07-20T12:38:36;4.35;;;2.90;;
42978;SDS011;28616;44.746;19.678;2023-07-20T12:41:03;7.57;;;2.17;;
42978;SDS011;28616;44.746;19.678;2023-07-20T12:43:29;4.45;;;1.98;;
42978;SDS011;28616;44.746;19.678;2023-07-20T12:45:57;6.20;;;2.15;;
42978;SDS011;28616;44.746;19.678;2023-07-20T12:48:24;4.15;;;1.83;;
42978;SDS011;28616;44.746;19.678;2023-07-20T12:50:50;4.05;;;1.73;;
42978;SDS011;28616;44.746;19.678;2023-07-20T12:53:17;5.35;;;2.45;;
42978;SDS011;28616;44.746;19.678;2023-07-20T12:55:43;4.68;;;2.15;;
42978;SDS011;28616;44.746;19.678;2023-07-20T12:58:09;6.85;;;2.50;;
42978;SDS011;28616;44.746;19.678;2023-07-20T13:00:35;7.07;;;2.53;;
42978;SDS011;28616;44.746;19.678;2023-07-20T13:03:02;8.80;;;2.15;;
42978;SDS011;28616;44.746;19.678;2023-07-20T13:05:32;6.32;;;2.33;;
42978;SDS011;28616;44.746;19.678;2023-07-20T13:07:58;6.93;;;2.55;;
42978;SDS011;28616;44.746;19.678;2023-07-20T13:10:24;6.65;;;2.03;;
42978;SDS011;28616;44.746;19.678;2023-07-20T13:12:50;5.50;;;2.25;;
42978;SDS011;28616;44.746;19.678;2023-07-20T13:15:17;4.70;;;2.03;;
42978;SDS011;28616;44.746;19.678;2023-07-20T13:17:43;6.25;;;2.60;;
42978;SDS011;28616;44.746;19.678;2023-07-20T13:20:11;4.00;;;2.30;;
42978;SDS011;28616;44.746;19.678;2023-07-20T13:22:37;5.03;;;1.83;;
42978;SDS011;28616;44.746;19.678;2023-07-20T13:25:04;5.32;;;2.55;;
42978;SDS011;28616;44.746;19.678;2023-07-20T13:27:31;5.90;;;2.30;;
42978;SDS011;28616;44.746;19.678;2023-07-20T13:29:58;6.07;;;2.28;;
42978;SDS011;28616;44.746;19.678;2023-07-20T13:32:25;4.47;;;2.05;;
42978;SDS011;28616;44.746;19.678;2023-07-20T13:34:51;3.55;;;1.98;;
42978;SDS011;28616;44.746;19.678;2023-07-20T13:37:17;4.72;;;2.00;;
42978;SDS011;28616;44.746;19.678;2023-07-20T13:39:43;4.63;;;2.00;;
42978;SDS011;28616;44.746;19.678;2023-07-20T13:42:10;3.15;;;2.03;;
42978;SDS011;28616;44.746;19.678;2023-07-20T13:44:37;3.63;;;1.92;;
42978;SDS011;28616;44.746;19.678;2023-07-20T13:47:04;3.33;;;1.65;;
42978;SDS011;28616;44.746;19.678;2023-07-20T13:49:33;2.88;;;1.90;;
42978;SDS011;28616;44.746;19.678;2023-07-20T13:51:59;7.30;;;2.83;;
42978;SDS011;28616;44.746;19.678;2023-07-20T13:54:25;5.80;;;2.50;;
42978;SDS011;28616;44.746;19.678;2023-07-20T13:56:52;6.55;;;2.08;;
42978;SDS011;28616;44.746;19.678;2023-07-20T13:59:18;3.97;;;2.08;;
42978;SDS011;28616;44.746;19.678;2023-07-20T14:01:44;6.07;;;2.40;;
42978;SDS011;28616;44.746;19.678;2023-07-20T14:04:11;6.60;;;2.30;;
42978;SDS011;28616;44.746;19.678;2023-07-20T14:06:37;4.57;;;1.95;;
42978;SDS011;28616;44.746;19.678;2023-07-20T14:09:04;5.13;;;1.90;;
42978;SDS011;28616;44.746;19.678;2023-07-20T14:11:30;4.30;;;2.20;;
42978;SDS011;28616;44.746;19.678;2023-07-20T14:13:56;4.88;;;2.47;;
42978;SDS011;28616;44.746;19.678;2023-07-20T14:16:23;4.22;;;1.98;;
42978;SDS011;28616;44.746;19.678;2023-07-20T14:18:49;4.32;;;2.22;;
42978;SDS011;28616;44.746;19.678;2023-07-20T14:21:16;4.97;;;2.50;;
42978;SDS011;28616;44.746;19.678;2023-07-20T14:23:44;4.15;;;2.08;;
42978;SDS011;28616;44.746;19.678;2023-07-20T14:26:11;9.20;;;2.28;;
42978;SDS011;28616;44.746;19.678;2023-07-20T14:28:37;4.28;;;2.00;;
42978;SDS011;28616;44.746;19.678;2023-07-20T14:31:04;7.68;;;2.53;;
42978;SDS011;28616;44.746;19.678;2023-07-20T14:33:30;7.15;;;2.58;;
42978;SDS011;28616;44.746;19.678;2023-07-20T14:35:56;2.70;;;1.90;;
42978;SDS011;28616;44.746;19.678;2023-07-20T14:38:22;4.32;;;2.13;;
42978;SDS011;28616;44.746;19.678;2023-07-20T14:40:49;6.00;;;2.70;;
42978;SDS011;28616;44.746;19.678;2023-07-20T14:43:15;6.93;;;2.42;;
42978;SDS011;28616;44.746;19.678;2023-07-20T14:45:41;6.00;;;2.53;;
42978;SDS011;28616;44.746;19.678;2023-07-20T14:48:08;3.97;;;2.28;;
42978;SDS011;28616;44.746;19.678;2023-07-20T14:50:34;5.40;;;3.08;;
42978;SDS011;28616;44.746;19.678;2023-07-20T14:53:01;4.65;;;2.58;;
42978;SDS011;28616;44.746;19.678;2023-07-20T14:55:28;5.22;;;2.30;;
42978;SDS011;28616;44.746;19.678;2023-07-20T14:57:54;6.22;;;2.75;;
42978;SDS011;28616;44.746;19.678;2023-07-20T15:00:20;6.60;;;2.95;;
42978;SDS011;28616;44.746;19.678;2023-07-20T15:02:46;3.53;;;2.30;;
42978;SDS011;28616;44.746;19.678;2023-07-20T15:05:14;8.93;;;2.80;;
42978;SDS011;28616;44.746;19.678;2023-07-20T15:07:46;6.70;;;2.35;;
42978;SDS011;28616;44.746;19.678;2023-07-20T15:10:12;7.13;;;2.58;;
42978;SDS011;28616;44.746;19.678;2023-07-20T15:12:38;4.00;;;2.33;;
42978;SDS011;28616;44.746;19.678;2023-07-20T15:15:22;4.53;;;2.60;;
42978;SDS011;28616;44.746;19.678;2023-07-20T15:17:49;3.97;;;2.30;;
42978;SDS011;28616;44.746;19.678;2023-07-20T15:20:15;5.43;;;2.45;;
42978;SDS011;28616;44.746;19.678;2023-07-20T15:22:42;4.07;;;2.50;;
42978;SDS011;28616;44.746;19.678;2023-07-20T15:25:10;3.80;;;2.80;;
42978;SDS011;28616;44.746;19.678;2023-07-20T15:27:36;5.32;;;2.35;;
42978;SDS011;28616;44.746;19.678;2023-07-20T15:30:03;5.10;;;2.35;;
42978;SDS011;28616;44.746;19.678;2023-07-20T15:32:30;5.50;;;2.38;;
42978;SDS011;28616;44.746;19.678;2023-07-20T15:34:56;9.63;;;3.05;;
42978;SDS011;28616;44.746;19.678;2023-07-20T15:37:23;4.55;;;2.70;;
42978;SDS011;28616;44.746;19.678;2023-07-20T15:39:49;10.82;;;3.05;;
42978;SDS011;28616;44.746;19.678;2023-07-20T15:42:15;6.07;;;2.45;;
42978;SDS011;28616;44.746;19.678;2023-07-20T15:44:41;6.47;;;2.30;;
42978;SDS011;28616;44.746;19.678;2023-07-20T15:47:08;6.85;;;3.45;;
42978;SDS011;28616;44.746;19.678;2023-07-20T15:49:34;5.03;;;3.08;;
42978;SDS011;28616;44.746;19.678;2023-07-20T15:52:00;6.32;;;2.85;;
42978;SDS011;28616;44.746;19.678;2023-07-20T15:54:26;8.10;;;3.10;;
42978;SDS011;28616;44.746;19.678;2023-07-20T15:56:53;6.38;;;2.85;;
42978;SDS011;28616;44.746;19.678;2023-07-20T15:59:19;4.82;;;2.72;;
42978;SDS011;28616;44.746;19.678;2023-07-20T16:01:45;8.05;;;2.97;;
42978;SDS011;28616;44.746;19.678;2023-07-20T16:04:12;6.80;;;2.90;;
42978;SDS011;28616;44.746;19.678;2023-07-20T16:06:41;4.95;;;2.55;;
42978;SDS011;28616;44.746;19.678;2023-07-20T16:09:07;4.65;;;2.88;;
42978;SDS011;28616;44.746;19.678;2023-07-20T16:11:34;7.97;;;2.63;;
42978;SDS011;28616;44.746;19.678;2023-07-20T16:14:02;7.72;;;2.60;;
42978;SDS011;28616;44.746;19.678;2023-07-20T16:16:29;8.43;;;2.83;;
42978;SDS011;28616;44.746;19.678;2023-07-20T16:18:55;10.60;;;2.78;;
42978;SDS011;28616;44.746;19.678;2023-07-20T16:21:22;6.55;;;2.70;;
42978;SDS011;28616;44.746;19.678;2023-07-20T16:23:48;6.43;;;3.20;;
42978;SDS011;28616;44.746;19.678;2023-07-20T16:26:14;6.20;;;3.35;;
42978;SDS011;28616;44.746;19.678;2023-07-20T16:28:40;8.18;;;3.50;;
42978;SDS011;28616;44.746;19.678;2023-07-20T16:31:17;6.53;;;2.80;;
42978;SDS011;28616;44.746;19.678;2023-07-20T16:33:44;7.90;;;3.13;;
42978;SDS011;28616;44.746;19.678;2023-07-20T16:36:10;7.32;;;3.30;;
42978;SDS011;28616;44.746;19.678;2023-07-20T16:38:37;9.60;;;2.90;;
42978;SDS011;28616;44.746;19.678;2023-07-20T16:41:05;6.45;;;3.25;;
42978;SDS011;28616;44.746;19.678;2023-07-20T16:43:36;9.13;;;3.03;;
42978;SDS011;28616;44.746;19.678;2023-07-20T16:46:03;6.18;;;3.25;;
42978;SDS011;28616;44.746;19.678;2023-07-20T16:48:30;8.25;;;3.05;;
42978;SDS011;28616;44.746;19.678;2023-07-20T16:50:57;5.18;;;3.22;;
42978;SDS011;28616;44.746;19.678;2023-07-20T16:53:24;7.25;;;3.50;;
42978;SDS011;28616;44.746;19.678;2023-07-20T16:55:51;5.40;;;2.83;;
42978;SDS011;28616;44.746;19.678;2023-07-20T16:58:17;8.82;;;2.83;;
42978;SDS011;28616;44.746;19.678;2023-07-20T17:00:45;4.65;;;3.10;;
42978;SDS011;28616;44.746;19.678;2023-07-20T17:03:12;4.75;;;2.90;;
42978;SDS011;28616;44.746;19.678;2023-07-20T17:05:38;6.97;;;2.92;;
42978;SDS011;28616;44.746;19.678;2023-07-20T17:08:04;8.90;;;3.30;;
42978;SDS011;28616;44.746;19.678;2023-07-20T17:10:31;8.82;;;3.60;;
42978;SDS011;28616;44.746;19.678;2023-07-20T17:12:57;7.50;;;3.30;;
42978;SDS011;28616;44.746;19.678;2023-07-20T17:15:23;5.97;;;2.95;;
42978;SDS011;28616;44.746;19.678;2023-07-20T17:17:49;7.65;;;3.50;;
42978;SDS011;28616;44.746;19.678;2023-07-20T17:20:18;6.10;;;3.03;;
42978;SDS011;28616;44.746;19.678;2023-07-20T17:22:45;7.97;;;3.33;;
42978;SDS011;28616;44.746;19.678;2023-07-20T17:25:12;8.75;;;3.20;;
42978;SDS011;28616;44.746;19.678;2023-07-20T17:27:38;6.50;;;3.30;;
42978;SDS011;28616;44.746;19.678;2023-07-20T17:30:07;10.07;;;3.47;;
42978;SDS011;28616;44.746;19.678;2023-07-20T17:32:34;6.18;;;3.50;;
42978;SDS011;28616;44.746;19.678;2023-07-20T17:35:00;6.38;;;3.17;;
42978;SDS011;28616;44.746;19.678;2023-07-20T17:37:26;5.68;;;3.35;;
42978;SDS011;28616;44.746;19.678;2023-07-20T17:39:52;10.30;;;3.90;;
42978;SDS011;28616;44.746;19.678;2023-07-20T17:42:20;8.68;;;3.47;;
42978;SDS011;28616;44.746;19.678;2023-07-20T17:44:46;9.15;;;4.03;;
42978;SDS011;28616;44.746;19.678;2023-07-20T17:47:13;8.63;;;3.45;;
42978;SDS011;28616;44.746;19.678;2023-07-20T17:49:40;7.22;;;3.25;;
42978;SDS011;28616;44.746;19.678;2023-07-20T17:52:06;7.47;;;3.50;;
42978;SDS011;28616;44.746;19.678;2023-07-20T17:54:33;9.05;;;3.70;;